EST,Max TemperatureF,Mean TemperatureF,Min TemperatureF,Max Dew PointF,MeanDew PointF,Min DewpointF,Max Humidity, Mean Humidity, Min Humidity, Max Sea Level PressureIn, Mean Sea Level PressureIn, Min Sea Level PressureIn, Max VisibilityMiles, Mean VisibilityMiles, Min VisibilityMiles, Max Wind SpeedMPH, Mean Wind SpeedMPH, Max Gust SpeedMPH,PrecipitationIn, CloudCover, Events, WindDirDegrees
2013-2-1,15,10,5,7,1,-4,75,64,57,30.42,30.27,30.05,10,9,2,21,15,31,0.00,4,Snow,252
2013-2-2,28,20,12,22,16,4,81,77,68,30.35,30.11,30.01,10,7,1,16,9,,0.03,8,Snow,210
2013-2-3,26,20,14,19,13,8,82,72,60,30.14,30.02,29.94,10,8,2,16,9,23,0.00,7,Snow,255
2013-2-4,32,22,12,29,21,8,90,76,59,30.13,29.93,29.84,10,6,1,14,7,23,0.02,7,Snow,174
2013-2-5,34,28,23,29,23,19,87,76,61,30.01,29.94,29.84,10,8,5,14,7,17,0.00,7,Snow,284
2013-2-6,37,32,26,27,22,18,77,67,50,30.30,30.21,30.04,10,10,7,9,7,,0.00,5,,336
2013-2-7,51,40,28,34,27,21,78,64,45,30.23,30.06,29.82,10,10,10,9,4,,0.00,5,,116
2013-2-8,50,39,26,39,29,19,85,73,49,30.35,30.03,29.79,10,10,6,20,13,29,0.11,8,Rain,290
2013-2-9,38,27,16,20,17,14,88,66,37,30.46,30.38,30.28,10,10,10,7,3,,0.00,2,,77
2013-2-10,50,37,24,41,27,18,79,54,33,30.26,30.00,29.80,10,10,10,20,8,29,0.00,7,Rain,134
2013-2-11,50,44,37,45,34,23,86,64,43,30.03,29.85,29.75,10,10,7,32,17,43,0.00,5,,223
2013-2-12,47,38,29,26,23,21,74,60,35,30.15,30.06,29.95,10,10,10,17,10,,0.00,4,,243
2013-2-13,36,32,28,26,24,22,86,78,60,29.94,29.86,29.79,10,10,5,9,6,,0.00,5,Snow,298
2013-2-14,51,40,29,36,31,25,90,74,47,30.00,29.90,29.81,10,10,5,23,12,28,0.02,5,Rain,206
2013-2-15,37,31,24,30,27,17,93,82,70,30.17,30.09,30.00,10,6,0,14,6,21,0.03,6,Snow,295
2013-2-16,27,20,14,19,14,5,91,69,54,30.16,30.09,30.05,10,8,2,18,7,23,0.00,6,Fog-Snow,267
2013-2-17,28,19,10,10,7,5,79,62,37,30.27,30.22,30.14,10,10,10,12,6,,0.00,2,Snow,274
2013-2-18,57,38,19,38,23,9,77,51,29,30.25,29.98,29.73,10,10,8,38,11,54,0.03,5,Rain,159
2013-2-19,44,34,22,39,25,12,93,75,59,30.11,29.84,29.63,10,8,2,29,20,39,0.14,8,Rain-Snow,239
2013-2-20,23,19,15,16,10,6,80,65,54,30.34,30.26,30.12,10,10,5,20,13,28,0.00,8,Rain-Snow,279
2013-2-21,28,24,21,20,15,12,75,69,59,30.39,30.30,30.15,10,10,7,15,9,23,0.00,8,Rain-Snow,39
2013-2-22,41,34,26,39,31,20,100,89,77,30.12,29.97,29.94,10,7,0,18,10,26,0.11,7,Fog-Rain,169
2013-2-23,40,35,29,31,25,22,89,70,50,30.01,29.97,29.93,10,10,10,15,7,,0.00,5,,253
2013-2-24,36,30,23,23,20,17,85,67,49,30.19,30.10,29.97,10,10,10,13,6,,0.00,5,,289
2013-2-25,44,32,19,24,21,16,89,66,44,30.22,30.13,29.96,10,10,5,14,4,,0.00,2,,71
2013-2-26,45,40,34,41,35,22,93,82,58,29.95,29.56,29.42,10,10,6,22,14,28,0.39,8,Rain,105
2013-2-27,42,37,32,39,33,28,93,84,75,29.71,29.64,29.50,10,9,4,25,17,33,0.13,8,Rain-Snow,216
2013-2-28,37,34,31,32,30,28,93,85,75,29.95,29.79,29.68,10,7,1,15,12,18,0.01,8,Rain-Snow,260